sensor_id;sensor_type;location;lat;lon;timestamp;pressure;altitude;pressure_sealevel;temperature;humidity
25664;BME280;13522;50.018;20.014;2023-02-15T00:02:44;100574.86;;;4.43;100.00
25664;BME280;13522;50.018;20.014;2023-02-15T00:05:59;100580.26;;;4.39;100.00
25664;BME280;13522;50.018;20.014;2023-02-15T00:09:11;100574.23;;;4.36;100.00
25664;BME280;13522;50.018;20.014;2023-02-15T00:12:24;100575.83;;;4.40;100.00
25664;BME280;13522;50.018;20.014;2023-02-15T00:15:36;100576.59;;;4.44;100.00
25664;BME280;13522;50.018;20.014;2023-02-15T00:18:48;100578.29;;;4.45;100.00
25664;BME280;13522;50.018;20.014;2023-02-15T00:22:02;100577.63;;;4.39;100.00
25664;BME280;13522;50.018;20.014;2023-02-15T00:25:15;100567.91;;;4.42;100.00
25664;BME280;13522;50.018;20.014;2023-02-15T00:28:26;100564.48;;;4.39;100.00
25664;BME280;13522;50.018;20.014;2023-02-15T00:31:39;100561.88;;;4.38;100.00
25664;BME280;13522;50.018;20.014;2023-02-15T00:34:51;100563.61;;;4.39;100.00
25664;BME280;13522;50.018;20.014;2023-02-15T00:38:03;100562.74;;;4.38;100.00
25664;BME280;13522;50.018;20.014;2023-02-15T00:41:15;100569.84;;;4.36;100.00
25664;BME280;13522;50.018;20.014;2023-02-15T00:44:27;100557.48;;;4.38;100.00
25664;BME280;13522;50.018;20.014;2023-02-15T00:47:40;100562.64;;;4.42;100.00
25664;BME280;13522;50.018;20.014;2023-02-15T00:50:55;100543.29;;;4.43;100.00
25664;BME280;13522;50.018;20.014;2023-02-15T00:54:08;100551.12;;;4.44;100.00
25664;BME280;13522;50.018;20.014;2023-02-15T00:57:20;100545.27;;;4.37;100.00
25664;BME280;13522;50.018;20.014;2023-02-15T01:00:33;100542.98;;;4.28;100.00
25664;BME280;13522;50.018;20.014;2023-02-15T01:03:45;100542.19;;;4.26;100.00
25664;BME280;13522;50.018;20.014;2023-02-15T01:06:59;100536.20;;;4.23;100.00
25664;BME280;13522;50.018;20.014;2023-02-15T01:10:12;100531.00;;;4.21;100.00
25664;BME280;13522;50.018;20.014;2023-02-15T01:13:24;100537.16;;;4.20;100.00
25664;BME280;13522;50.018;20.014;2023-02-15T01:16:36;100524.95;;;4.19;100.00
25664;BME280;13522;50.018;20.014;2023-02-15T01:19:48;100517.95;;;4.18;100.00
25664;BME280;13522;50.018;20.014;2023-02-15T01:23:01;100515.53;;;4.14;100.00
25664;BME280;13522;50.018;20.014;2023-02-15T01:26:13;100523.45;;;4.12;100.00
25664;BME280;13522;50.018;20.014;2023-02-15T01:29:25;100527.02;;;4.11;100.00
25664;BME280;13522;50.018;20.014;2023-02-15T01:32:37;100527.13;;;4.08;100.00
25664;BME280;13522;50.018;20.014;2023-02-15T01:35:52;100519.30;;;4.07;100.00
25664;BME280;13522;50.018;20.014;2023-02-15T01:39:08;100517.70;;;4.03;100.00
25664;BME280;13522;50.018;20.014;2023-02-15T01:42:24;100507.19;;;4.03;100.00
25664;BME280;13522;50.018;20.014;2023-02-15T01:45:38;100513.31;;;4.03;100.00
25664;BME280;13522;50.018;20.014;2023-02-15T01:48:55;100513.41;;;4.00;100.00
25664;BME280;13522;50.018;20.014;2023-02-15T01:52:11;100503.03;;;3.97;100.00
25664;BME280;13522;50.018;20.014;2023-02-15T01:55:31;100502.30;;;3.94;100.00
25664;BME280;13522;50.018;20.014;2023-02-15T01:58:45;100506.77;;;3.92;100.00
25664;BME280;13522;50.018;20.014;2023-02-15T02:02:00;100498.11;;;3.88;100.00
25664;BME280;13522;50.018;20.014;2023-02-15T02:05:14;100492.99;;;3.85;100.00
25664;BME280;13522;50.018;20.014;2023-02-15T02:08:27;100491.30;;;3.84;100.00
25664;BME280;13522;50.018;20.014;2023-02-15T02:11:40;100488.47;;;3.89;100.00
25664;BME280;13522;50.018;20.014;2023-02-15T02:14:54;100478.65;;;3.94;100.00
25664;BME280;13522;50.018;20.014;2023-02-15T02:18:14;100478.58;;;3.95;100.00
25664;BME280;13522;50.018;20.014;2023-02-15T02:30:02;100478.58;;;3.95;100.00
25664;BME280;13522;50.018;20.014;2023-02-15T02:33:50;100473.08;;;4.01;100.00
25664;BME280;13522;50.018;20.014;2023-02-15T02:37:10;100438.11;;;3.78;100.00
25664;BME280;13522;50.018;20.014;2023-02-15T02:40:30;100479.69;;;3.90;100.00
25664;BME280;13522;50.018;20.014;2023-02-15T02:43:50;100473.42;;;3.92;100.00
25664;BME280;13522;50.018;20.014;2023-02-15T02:47:09;100460.42;;;3.89;100.00
25664;BME280;13522;50.018;20.014;2023-02-15T02:50:27;100471.73;;;3.91;100.00
25664;BME280;13522;50.018;20.014;2023-02-15T02:53:40;100465.02;;;3.84;100.00
25664;BME280;13522;50.018;20.014;2023-02-15T02:56:57;100466.58;;;3.88;100.00
25664;BME280;13522;50.018;20.014;2023-02-15T03:00:14;100468.23;;;3.91;100.00
25664;BME280;13522;50.018;20.014;2023-02-15T03:03:30;100466.58;;;3.88;100.00
25664;BME280;13522;50.018;20.014;2023-02-15T03:06:48;100464.74;;;3.90;100.00
25664;BME280;13522;50.018;20.014;2023-02-15T03:10:04;100463.91;;;3.90;100.00
25664;BME280;13522;50.018;20.014;2023-02-15T03:13:18;100449.11;;;3.87;100.00
25664;BME280;13522;50.018;20.014;2023-02-15T03:16:32;100456.20;;;3.85;100.00
25664;BME280;13522;50.018;20.014;2023-02-15T03:19:47;100452.91;;;3.80;100.00
25664;BME280;13522;50.018;20.014;2023-02-15T03:23:02;100453.74;;;3.81;100.00
25664;BME280;13522;50.018;20.014;2023-02-15T03:26:16;100445.55;;;3.88;100.00
25664;BME280;13522;50.018;20.014;2023-02-15T03:29:30;100446.41;;;3.89;100.00
25664;BME280;13522;50.018;20.014;2023-02-15T03:32:44;100445.83;;;3.82;100.00
25664;BME280;13522;50.018;20.014;2023-02-15T03:36:01;100439.70;;;3.82;100.00
25664;BME280;13522;50.018;20.014;2023-02-15T03:39:22;100436.34;;;3.78;100.00
25664;BME280;13522;50.018;20.014;2023-02-15T03:42:38;100436.52;;;3.74;100.00
25664;BME280;13522;50.018;20.014;2023-02-15T03:45:54;100438.52;;;3.67;100.00
25664;BME280;13522;50.018;20.014;2023-02-15T03:49:12;100441.84;;;3.72;100.00
25664;BME280;13522;50.018;20.014;2023-02-15T03:52:24;100440.24;;;3.68;100.00
25664;BME280;13522;50.018;20.014;2023-02-15T03:55:38;100431.36;;;3.71;100.00
25664;BME280;13522;50.018;20.014;2023-02-15T03:58:50;100422.69;;;3.69;100.00
25664;BME280;13522;50.018;20.014;2023-02-15T04:02:19;100438.41;;;3.70;100.00
25664;BME280;13522;50.018;20.014;2023-02-15T04:05:34;100439.31;;;3.69;100.00
25664;BME280;13522;50.018;20.014;2023-02-15T04:08:46;100439.11;;;3.52;100.00
25664;BME280;13522;50.018;20.014;2023-02-15T04:12:13;100447.09;;;3.49;100.00
25664;BME280;13522;50.018;20.014;2023-02-15T04:15:25;100438.64;;;3.41;100.00
25664;BME280;13522;50.018;20.014;2023-02-15T04:18:53;100450.75;;;3.45;100.00
25664;BME280;13522;50.018;20.014;2023-02-15T04:22:19;100440.02;;;3.51;100.00
25664;BME280;13522;50.018;20.014;2023-02-15T04:25:46;100436.59;;;3.49;100.00
25664;BME280;13522;50.018;20.014;2023-02-15T04:28:58;100434.98;;;3.45;100.00
25664;BME280;13522;50.018;20.014;2023-02-15T04:32:11;100426.88;;;3.51;100.00
25664;BME280;13522;50.018;20.014;2023-02-15T04:35:23;100424.15;;;3.54;100.00
25664;BME280;13522;50.018;20.014;2023-02-15T04:38:37;100432.83;;;3.56;100.00
25664;BME280;13522;50.018;20.014;2023-02-15T04:41:49;100430.00;;;3.61;100.00
25664;BME280;13522;50.018;20.014;2023-02-15T04:45:01;100432.70;;;3.59;100.00
25664;BME280;13522;50.018;20.014;2023-02-15T04:48:14;100430.66;;;3.44;100.00
25664;BME280;13522;50.018;20.014;2023-02-15T04:51:27;100427.91;;;3.47;100.00
25664;BME280;13522;50.018;20.014;2023-02-15T04:54:39;100426.28;;;3.44;100.00
25664;BME280;13522;50.018;20.014;2023-02-15T04:57:51;100427.91;;;3.47;100.00
25664;BME280;13522;50.018;20.014;2023-02-15T05:01:04;100436.59;;;3.49;100.00
25664;BME280;13522;50.018;20.014;2023-02-15T05:04:16;100438.55;;;3.44;100.00
25664;BME280;13522;50.018;20.014;2023-02-15T05:07:28;100436.81;;;3.43;100.00
25664;BME280;13522;50.018;20.014;2023-02-15T05:10:40;100439.34;;;3.46;100.00
25664;BME280;13522;50.018;20.014;2023-02-15T05:13:52;100440.14;;;3.48;100.00
25664;BME280;13522;50.018;20.014;2023-02-15T05:17:04;100435.69;;;3.50;100.00
25664;BME280;13522;50.018;20.014;2023-02-15T05:20:17;100446.52;;;3.41;100.00
25664;BME280;13522;50.018;20.014;2023-02-15T05:23:29;100440.70;;;3.33;100.00
25664;BME280;13522;50.018;20.014;2023-02-15T05:26:42;100434.48;;;3.35;100.00
25664;BME280;13522;50.018;20.014;2023-02-15T05:30:11;100442.30;;;3.37;100.00
25664;BME280;13522;50.018;20.014;2023-02-15T05:33:25;100443.23;;;3.36;100.00
25664;BME280;13522;50.018;20.014;2023-02-15T05:36:36;100444.58;;;3.23;100.00
25664;BME280;13522;50.018;20.014;2023-02-15T05:39:48;100453.09;;;3.29;100.00
25664;BME280;13522;50.018;20.014;2023-02-15T05:43:00;100444.41;;;3.27;100.00
25664;BME280;13522;50.018;20.014;2023-02-15T05:46:13;100452.42;;;3.24;100.00
25664;BME280;13522;50.018;20.014;2023-02-15T05:49:25;100445.44;;;3.23;100.00
25664;BME280;13522;50.018;20.014;2023-02-15T05:52:37;100452.42;;;3.24;100.00
25664;BME280;13522;50.018;20.014;2023-02-15T05:55:49;100446.30;;;3.24;100.00
25664;BME280;13522;50.018;20.014;2023-02-15T05:59:04;100451.04;;;3.14;100.00
25664;BME280;13522;50.018;20.014;2023-02-15T06:02:16;100451.10;;;3.13;100.00
25664;BME280;13522;50.018;20.014;2023-02-15T06:05:29;100445.85;;;3.13;100.00
25664;BME280;13522;50.018;20.014;2023-02-15T06:08:41;100449.95;;;3.20;100.00
25664;BME280;13522;50.018;20.014;2023-02-15T06:11:53;100451.62;;;3.22;100.00
25664;BME280;13522;50.018;20.014;2023-02-15T06:15:06;100448.70;;;3.30;100.00
25664;BME280;13522;50.018;20.014;2023-02-15T06:18:20;100452.87;;;3.35;100.00
25664;BME280;13522;50.018;20.014;2023-02-15T06:21:32;100445.91;;;3.34;100.00
25664;BME280;13522;50.018;20.014;2023-02-15T06:24:44;100445.85;;;3.36;100.00
25664;BME280;13522;50.018;20.014;2023-02-15T06:27:56;100447.84;;;3.29;100.00
25664;BME280;13522;50.018;20.014;2023-02-15T06:31:08;100445.91;;;3.34;100.00
25664;BME280;13522;50.018;20.014;2023-02-15T06:34:21;100443.16;;;3.37;100.00
25664;BME280;13522;50.018;20.014;2023-02-15T06:37:33;100441.56;;;3.33;100.00
25664;BME280;13522;50.018;20.014;2023-02-15T06:40:45;100446.95;;;3.30;100.00
25664;BME280;13522;50.018;20.014;2023-02-15T06:43:57;100448.77;;;3.28;100.00
25664;BME280;13522;50.018;20.014;2023-02-15T06:47:09;100449.60;;;3.29;100.00
25664;BME280;13522;50.018;20.014;2023-02-15T06:50:21;100441.34;;;3.16;100.00
25664;BME280;13522;50.018;20.014;2023-02-15T06:53:34;100451.26;;;3.08;100.00
25664;BME280;13522;50.018;20.014;2023-02-15T06:56:46;100443.09;;;3.16;100.00
25664;BME280;13522;50.018;20.014;2023-02-15T06:59:59;100446.66;;;3.15;100.00
25664;BME280;13522;50.018;20.014;2023-02-15T07:03:14;100441.41;;;3.15;100.00
25664;BME280;13522;50.018;20.014;2023-02-15T07:06:26;100448.13;;;3.22;100.00
25664;BME280;13522;50.018;20.014;2023-02-15T07:09:42;100453.03;;;3.31;100.00
25664;BME280;13522;50.018;20.014;2023-02-15T07:12:54;100443.55;;;3.27;100.00
25664;BME280;13522;50.018;20.014;2023-02-15T07:16:07;100444.34;;;3.29;100.00
25664;BME280;13522;50.018;20.014;2023-02-15T07:19:20;100446.08;;;3.30;100.00
25664;BME280;13522;50.018;20.014;2023-02-15T07:22:32;100445.28;;;3.28;100.00
25664;BME280;13522;50.018;20.014;2023-02-15T07:25:44;100445.38;;;3.25;100.00
25664;BME280;13522;50.018;20.014;2023-02-15T07:28:56;100440.41;;;3.17;100.00
25664;BME280;13522;50.018;20.014;2023-02-15T07:32:08;100439.80;;;3.11;100.00
25664;BME280;13522;50.018;20.014;2023-02-15T07:35:20;100433.40;;;3.18;100.00
25664;BME280;13522;50.018;20.014;2023-02-15T07:38:34;100430.42;;;3.27;100.00
25664;BME280;13522;50.018;20.014;2023-02-15T07:41:48;100429.97;;;3.39;100.00
25664;BME280;13522;50.018;20.014;2023-02-15T07:45:00;100435.73;;;3.25;100.00
25664;BME280;13522;50.018;20.014;2023-02-15T07:48:12;100433.30;;;3.44;100.00
25664;BME280;13522;50.018;20.014;2023-02-15T07:51:24;100426.71;;;3.56;100.00
25664;BME280;13522;50.018;20.014;2023-02-15T07:54:36;100428.17;;;3.63;100.00
25664;BME280;13522;50.018;20.014;2023-02-15T07:57:50;100431.33;;;3.72;100.00
25664;BME280;13522;50.018;20.014;2023-02-15T08:01:02;100428.33;;;3.81;100.00
25664;BME280;13522;50.018;20.014;2023-02-15T08:04:15;100425.27;;;3.70;100.00
25664;BME280;13522;50.018;20.014;2023-02-15T08:07:27;100429.41;;;3.54;100.00
25664;BME280;13522;50.018;20.014;2023-02-15T08:10:39;100426.55;;;3.60;100.00
25664;BME280;13522;50.018;20.014;2023-02-15T08:14:07;100423.69;;;3.66;100.00
25664;BME280;13522;50.018;20.014;2023-02-15T08:17:20;100417.87;;;3.58;100.00
25664;BME280;13522;50.018;20.014;2023-02-15T08:20:32;100402.66;;;3.66;100.00
25664;BME280;13522;50.018;20.014;2023-02-15T08:23:44;100412.63;;;4.01;100.00
25664;BME280;13522;50.018;20.014;2023-02-15T08:26:57;100397.16;;;4.76;100.00
25664;BME280;13522;50.018;20.014;2023-02-15T08:30:14;100392.47;;;5.21;97.35
25664;BME280;13522;50.018;20.014;2023-02-15T08:33:26;100386.65;;;5.14;96.67
25664;BME280;13522;50.018;20.014;2023-02-15T08:36:38;100396.70;;;4.86;97.76
25664;BME280;13522;50.018;20.014;2023-02-15T08:39:51;100385.66;;;5.36;95.37
25664;BME280;13522;50.018;20.014;2023-02-15T08:43:03;100389.36;;;5.32;95.38
25664;BME280;13522;50.018;20.014;2023-02-15T08:46:16;100376.20;;;6.56;91.55
25664;BME280;13522;50.018;20.014;2023-02-15T08:49:29;100365.25;;;7.91;86.46
25664;BME280;13522;50.018;20.014;2023-02-15T08:52:41;100359.14;;;8.36;81.10
25664;BME280;13522;50.018;20.014;2023-02-15T08:55:58;100357.02;;;8.70;79.13
25664;BME280;13522;50.018;20.014;2023-02-15T08:59:14;100350.64;;;8.45;79.44
25664;BME280;13522;50.018;20.014;2023-02-15T09:02:27;100351.42;;;9.45;77.64
25664;BME280;13522;50.018;20.014;2023-02-15T09:05:39;100352.22;;;9.74;75.13
25664;BME280;13522;50.018;20.014;2023-02-15T09:08:52;100351.83;;;8.69;78.27
25664;BME280;13522;50.018;20.014;2023-02-15T09:12:05;100350.46;;;9.60;76.72
25664;BME280;13522;50.018;20.014;2023-02-15T09:15:17;100348.27;;;9.53;76.80
25664;BME280;13522;50.018;20.014;2023-02-15T09:18:31;100345.19;;;10.14;74.26
25664;BME280;13522;50.018;20.014;2023-02-15T09:21:45;100340.25;;;10.08;72.70
25664;BME280;13522;50.018;20.014;2023-02-15T09:24:57;100329.66;;;10.60;70.29
25664;BME280;13522;50.018;20.014;2023-02-15T09:28:09;100331.66;;;10.69;70.93
25664;BME280;13522;50.018;20.014;2023-02-15T09:31:23;100328.16;;;10.81;70.75
25664;BME280;13522;50.018;20.014;2023-02-15T09:34:36;100315.47;;;11.09;69.00
25664;BME280;13522;50.018;20.014;2023-02-15T09:37:48;100319.73;;;11.12;69.02
25664;BME280;13522;50.018;20.014;2023-02-15T09:41:08;100329.30;;;10.39;71.67
25664;BME280;13522;50.018;20.014;2023-02-15T09:44:33;100330.33;;;9.97;72.26
25664;BME280;13522;50.018;20.014;2023-02-15T09:51:51;100322.03;;;9.63;75.25
25664;BME280;13522;50.018;20.014;2023-02-15T09:55:31;100316.66;;;9.50;77.05
25664;BME280;13522;50.018;20.014;2023-02-15T09:58:53;100312.39;;;9.47;75.96
25664;BME280;13522;50.018;20.014;2023-02-15T10:02:15;100305.94;;;9.11;77.68
25664;BME280;13522;50.018;20.014;2023-02-15T10:05:38;100300.13;;;9.32;76.73
25664;BME280;13522;50.018;20.014;2023-02-15T10:09:09;100295.39;;;9.23;79.40
25664;BME280;13522;50.018;20.014;2023-02-15T10:12:51;100294.87;;;8.90;79.11
25664;BME280;13522;50.018;20.014;2023-02-15T10:16:20;100292.59;;;8.98;80.00
25664;BME280;13522;50.018;20.014;2023-02-15T10:19:40;100285.23;;;9.44;78.36
25664;BME280;13522;50.018;20.014;2023-02-15T10:23:05;100282.11;;;9.37;78.23
25664;BME280;13522;50.018;20.014;2023-02-15T10:26:27;100268.70;;;9.26;77.48
25664;BME280;13522;50.018;20.014;2023-02-15T10:29:45;100271.78;;;8.92;78.75
25664;BME280;13522;50.018;20.014;2023-02-15T10:33:03;100276.16;;;8.79;78.76
25664;BME280;13522;50.018;20.014;2023-02-15T10:36:27;100266.30;;;8.95;79.27
25664;BME280;13522;50.018;20.014;2023-02-15T10:39:48;100257.70;;;9.32;78.00
25664;BME280;13522;50.018;20.014;2023-02-15T10:47:04;100263.08;;;8.90;79.30
25664;BME280;13522;50.018;20.014;2023-02-15T10:50:39;100259.50;;;8.63;80.12
25664;BME280;13522;50.018;20.014;2023-02-15T10:54:08;100256.16;;;8.88;79.51
25664;BME280;13522;50.018;20.014;2023-02-15T10:57:27;100250.95;;;9.00;81.54
25664;BME280;13522;50.018;20.014;2023-02-15T11:00:45;100246.09;;;9.47;78.61
25664;BME280;13522;50.018;20.014;2023-02-15T11:08:03;100229.77;;;9.80;76.25
25664;BME280;13522;50.018;20.014;2023-02-15T11:11:19;100216.95;;;9.99;76.87
25664;BME280;13522;50.018;20.014;2023-02-15T11:14:37;100210.95;;;10.10;75.38
25664;BME280;13522;50.018;20.014;2023-02-15T11:17:58;100214.63;;;10.07;75.91
25664;BME280;13522;50.018;20.014;2023-02-15T11:21:17;100201.39;;;10.58;74.05
25664;BME280;13522;50.018;20.014;2023-02-15T11:24:40;100199.09;;;10.89;73.78
25664;BME280;13522;50.018;20.014;2023-02-15T11:27:47;100203.88;;;10.84;71.50
25664;BME280;13522;50.018;20.014;2023-02-15T11:31:16;100191.89;;;11.15;72.03
25664;BME280;13522;50.018;20.014;2023-02-15T11:34:27;100183.05;;;10.78;71.42
25664;BME280;13522;50.018;20.014;2023-02-15T11:37:44;100190.00;;;11.04;70.73
25664;BME280;13522;50.018;20.014;2023-02-15T11:41:01;100178.47;;;11.16;70.16
25664;BME280;13522;50.018;20.014;2023-02-15T11:44:17;100174.75;;;11.19;70.23
25664;BME280;13522;50.018;20.014;2023-02-15T11:47:33;100161.53;;;11.41;68.57
25664;BME280;13522;50.018;20.014;2023-02-15T11:50:45;100159.27;;;11.48;69.35
25664;BME280;13522;50.018;20.014;2023-02-15T11:53:58;100161.19;;;11.46;69.74
25664;BME280;13522;50.018;20.014;2023-02-15T11:57:16;100158.53;;;11.69;69.22
25664;BME280;13522;50.018;20.014;2023-02-15T12:00:35;100158.20;;;11.50;68.96
25664;BME280;13522;50.018;20.014;2023-02-15T12:03:51;100148.81;;;12.03;67.49
25664;BME280;13522;50.018;20.014;2023-02-15T12:07:11;100141.03;;;11.89;67.80
25664;BME280;13522;50.018;20.014;2023-02-15T12:10:30;100138.66;;;12.19;68.29
25664;BME280;13522;50.018;20.014;2023-02-15T12:13:58;100138.92;;;12.16;66.67
25664;BME280;13522;50.018;20.014;2023-02-15T12:17:15;100123.72;;;11.83;67.18
25664;BME280;13522;50.018;20.014;2023-02-15T12:20:30;100122.14;;;11.81;68.82
25664;BME280;13522;50.018;20.014;2023-02-15T12:23:48;100115.65;;;11.61;68.16
25664;BME280;13522;50.018;20.014;2023-02-15T12:27:04;100115.83;;;11.71;68.19
25664;BME280;13522;50.018;20.014;2023-02-15T12:30:24;100110.28;;;11.74;69.10
25664;BME280;13522;50.018;20.014;2023-02-15T12:33:42;100111.05;;;11.98;68.25
25664;BME280;13522;50.018;20.014;2023-02-15T12:36:57;100112.95;;;11.85;68.21
25664;BME280;13522;50.018;20.014;2023-02-15T12:40:23;100108.22;;;11.77;68.97
25664;BME280;13522;50.018;20.014;2023-02-15T12:43:37;100105.86;;;11.62;68.90
25664;BME280;13522;50.018;20.014;2023-02-15T12:47:00;100101.39;;;11.62;69.21
25664;BME280;13522;50.018;20.014;2023-02-15T12:50:23;100103.71;;;11.67;68.31
25664;BME280;13522;50.018;20.014;2023-02-15T12:53:40;100103.80;;;11.65;68.74
25664;BME280;13522;50.018;20.014;2023-02-15T12:56:52;100086.84;;;11.90;68.37
25664;BME280;13522;50.018;20.014;2023-02-15T13:00:06;100088.99;;;11.85;68.37
25664;BME280;13522;50.018;20.014;2023-02-15T13:03:26;100086.45;;;11.72;68.73
25664;BME280;13522;50.018;20.014;2023-02-15T13:06:46;100082.63;;;11.53;69.26
25664;BME280;13522;50.018;20.014;2023-02-15T13:09:58;100079.19;;;11.40;70.76
25664;BME280;13522;50.018;20.014;2023-02-15T13:13:16;100069.72;;;11.24;70.90
25664;BME280;13522;50.018;20.014;2023-02-15T13:16:33;100072.72;;;11.20;71.18
25664;BME280;13522;50.018;20.014;2023-02-15T13:19:49;100068.92;;;11.11;71.07
25664;BME280;13522;50.018;20.014;2023-02-15T13:23:06;100072.45;;;10.88;71.97
25664;BME280;13522;50.018;20.014;2023-02-15T13:26:25;100072.77;;;10.60;72.05
25664;BME280;13522;50.018;20.014;2023-02-15T13:29:43;100067.25;;;10.63;73.84
25664;BME280;13522;50.018;20.014;2023-02-15T13:33:00;100062.77;;;10.64;72.98
25664;BME280;13522;50.018;20.014;2023-02-15T13:36:14;100057.45;;;10.64;73.06
25664;BME280;13522;50.018;20.014;2023-02-15T13:39:32;100055.59;;;10.53;75.05
25664;BME280;13522;50.018;20.014;2023-02-15T13:42:49;100047.83;;;10.50;75.26
25664;BME280;13522;50.018;20.014;2023-02-15T13:46:17;100050.19;;;10.42;74.01
25664;BME280;13522;50.018;20.014;2023-02-15T13:49:47;100045.83;;;10.54;74.36
25664;BME280;13522;50.018;20.014;2023-02-15T13:53:16;100047.39;;;10.56;75.42
25664;BME280;13522;50.018;20.014;2023-02-15T13:56:40;100052.77;;;10.43;75.14
25664;BME280;13522;50.018;20.014;2023-02-15T14:00:11;100051.17;;;10.41;75.61
25664;BME280;13522;50.018;20.014;2023-02-15T14:04:01;100041.41;;;10.41;76.18
25664;BME280;13522;50.018;20.014;2023-02-15T14:07:35;100041.73;;;10.37;76.51
25664;BME280;13522;50.018;20.014;2023-02-15T14:11:01;100037.83;;;10.30;78.01
25664;BME280;13522;50.018;20.014;2023-02-15T14:14:26;100035.50;;;10.25;77.60
25664;BME280;13522;50.018;20.014;2023-02-15T14:18:07;100035.31;;;10.16;77.64
25664;BME280;13522;50.018;20.014;2023-02-15T14:21:27;100035.75;;;10.10;78.33
25664;BME280;13522;50.018;20.014;2023-02-15T14:24:46;100030.00;;;10.16;78.66
25664;BME280;13522;50.018;20.014;2023-02-15T14:28:06;100022.48;;;10.10;78.22
25664;BME280;13522;50.018;20.014;2023-02-15T14:31:23;100018.08;;;10.09;78.59
25664;BME280;13522;50.018;20.014;2023-02-15T14:34:43;100025.84;;;9.99;78.94
25664;BME280;13522;50.018;20.014;2023-02-15T14:38:01;100021.09;;;9.92;78.92
25664;BME280;13522;50.018;20.014;2023-02-15T14:41:17;100019.06;;;9.95;77.82
25664;BME280;13522;50.018;20.014;2023-02-15T14:44:35;100026.20;;;9.82;80.26
25664;BME280;13522;50.018;20.014;2023-02-15T14:47:55;100017.81;;;9.63;80.03
25664;BME280;13522;50.018;20.014;2023-02-15T14:51:08;100016.66;;;9.54;81.45
25664;BME280;13522;50.018;20.014;2023-02-15T14:54:58;100015.28;;;9.36;83.61
25664;BME280;13522;50.018;20.014;2023-02-15T14:58:14;100017.05;;;9.23;83.39
25664;BME280;13522;50.018;20.014;2023-02-15T15:01:29;100017.05;;;9.23;83.55
25664;BME280;13522;50.018;20.014;2023-02-15T15:04:45;100022.98;;;9.14;84.94
25664;BME280;13522;50.018;20.014;2023-02-15T15:08:06;100019.55;;;9.00;85.10
25664;BME280;13522;50.018;20.014;2023-02-15T15:11:42;100016.89;;;8.87;86.65
25664;BME280;13522;50.018;20.014;2023-02-15T15:14:56;100013.98;;;8.78;86.06
25664;BME280;13522;50.018;20.014;2023-02-15T15:18:08;100011.20;;;8.66;87.06
25664;BME280;13522;50.018;20.014;2023-02-15T15:21:57;100013.20;;;8.63;87.99
25664;BME280;13522;50.018;20.014;2023-02-15T15:28:59;99999.66;;;8.41;88.20
25664;BME280;13522;50.018;20.014;2023-02-15T15:32:13;99999.70;;;8.27;89.61
25664;BME280;13522;50.018;20.014;2023-02-15T15:35:50;100006.70;;;8.14;90.57
25664;BME280;13522;50.018;20.014;2023-02-15T15:39:12;100000.30;;;8.04;91.11
25664;BME280;13522;50.018;20.014;2023-02-15T15:42:46;100000.11;;;7.93;91.69
25664;BME280;13522;50.018;20.014;2023-02-15T15:46:33;99998.91;;;7.84;91.88
25664;BME280;13522;50.018;20.014;2023-02-15T15:50:14;100001.45;;;7.71;92.68
25664;BME280;13522;50.018;20.014;2023-02-15T15:53:31;99995.31;;;7.57;93.47
25664;BME280;13522;50.018;20.014;2023-02-15T15:56:51;100000.31;;;7.47;93.87
25664;BME280;13522;50.018;20.014;2023-02-15T16:00:04;100005.31;;;7.38;94.75
25664;BME280;13522;50.018;20.014;2023-02-15T16:03:29;99999.74;;;7.28;95.21
25664;BME280;13522;50.018;20.014;2023-02-15T16:06:42;99999.25;;;7.22;95.92
25664;BME280;13522;50.018;20.014;2023-02-15T16:09:58;100008.00;;;7.08;96.84
25664;BME280;13522;50.018;20.014;2023-02-15T16:13:15;99998.76;;;7.01;97.06
25664;BME280;13522;50.018;20.014;2023-02-15T16:16:30;100000.23;;;6.91;97.51
25664;BME280;13522;50.018;20.014;2023-02-15T16:19:43;99999.73;;;6.84;98.11
25664;BME280;13522;50.018;20.014;2023-02-15T16:23:02;99998.66;;;6.73;98.66
25664;BME280;13522;50.018;20.014;2023-02-15T16:26:32;99994.66;;;6.66;98.92
25664;BME280;13522;50.018;20.014;2023-02-15T16:29:53;99995.30;;;6.55;99.81
25664;BME280;13522;50.018;20.014;2023-02-15T16:33:11;99996.06;;;6.57;99.99
25664;BME280;13522;50.018;20.014;2023-02-15T16:36:27;99989.32;;;6.52;99.53
25664;BME280;13522;50.018;20.014;2023-02-15T16:39:42;99992.69;;;6.40;100.00
25664;BME280;13522;50.018;20.014;2023-02-15T16:42:59;99989.63;;;6.32;100.00
25664;BME280;13522;50.018;20.014;2023-02-15T16:46:14;99988.10;;;6.28;100.00
25664;BME280;13522;50.018;20.014;2023-02-15T16:49:37;99995.06;;;6.29;100.00
25664;BME280;13522;50.018;20.014;2023-02-15T16:52:45;99995.59;;;6.20;100.00
25664;BME280;13522;50.018;20.014;2023-02-15T16:56:00;99998.73;;;6.10;100.00
25664;BME280;13522;50.018;20.014;2023-02-15T16:59:22;100003.57;;;6.02;100.00
25664;BME280;13522;50.018;20.014;2023-02-15T17:02:40;100000.35;;;5.97;100.00
25664;BME280;13522;50.018;20.014;2023-02-15T17:06:01;99994.73;;;5.88;100.00
25664;BME280;13522;50.018;20.014;2023-02-15T17:09:18;99990.77;;;5.79;100.00
25664;BME280;13522;50.018;20.014;2023-02-15T17:16:27;99996.23;;;5.76;100.00
25664;BME280;13522;50.018;20.014;2023-02-15T17:19:43;100001.44;;;5.61;100.00
25664;BME280;13522;50.018;20.014;2023-02-15T17:22:57;99995.34;;;5.60;100.00
25664;BME280;13522;50.018;20.014;2023-02-15T17:26:15;99997.68;;;5.49;100.00
25664;BME280;13522;50.018;20.014;2023-02-15T17:29:36;99995.38;;;5.43;100.00